sensor_id;sensor_type;location;lat;lon;timestamp;P1;durP1;ratioP1;P2;durP2;ratioP2
11651;SDS011;5882;48.818;9.114;2023-04-23T00:00:34;1.48;;;1.38;;
11651;SDS011;5882;48.818;9.114;2023-04-23T00:03:20;1.63;;;1.50;;
11651;SDS011;5882;48.818;9.114;2023-04-23T00:06:06;1.70;;;1.45;;
11651;SDS011;5882;48.818;9.114;2023-04-23T00:08:54;2.00;;;1.42;;
11651;SDS011;5882;48.818;9.114;2023-04-23T00:11:41;1.60;;;1.50;;
11651;SDS011;5882;48.818;9.114;2023-04-23T00:14:27;1.38;;;1.27;;
11651;SDS011;5882;48.818;9.114;2023-04-23T00:17:12;1.63;;;1.52;;
11651;SDS011;5882;48.818;9.114;2023-04-23T00:19:57;1.48;;;1.38;;
11651;SDS011;5882;48.818;9.114;2023-04-23T00:22:42;1.40;;;1.30;;
11651;SDS011;5882;48.818;9.114;2023-04-23T00:25:29;1.67;;;1.58;;
11651;SDS011;5882;48.818;9.114;2023-04-23T00:28:15;2.22;;;1.50;;
11651;SDS011;5882;48.818;9.114;2023-04-23T00:31:00;2.50;;;2.30;;
11651;SDS011;5882;48.818;9.114;2023-04-23T00:33:45;1.40;;;1.30;;
11651;SDS011;5882;48.818;9.114;2023-04-23T00:36:30;2.85;;;1.73;;
11651;SDS011;5882;48.818;9.114;2023-04-23T00:39:15;1.40;;;1.30;;
11651;SDS011;5882;48.818;9.114;2023-04-23T00:42:03;1.42;;;1.33;;
11651;SDS011;5882;48.818;9.114;2023-04-23T00:44:54;2.13;;;1.65;;
11651;SDS011;5882;48.818;9.114;2023-04-23T00:47:39;1.67;;;1.58;;
11651;SDS011;5882;48.818;9.114;2023-04-23T00:50:25;1.65;;;1.55;;
11651;SDS011;5882;48.818;9.114;2023-04-23T00:53:15;2.15;;;1.40;;
11651;SDS011;5882;48.818;9.114;2023-04-23T00:56:01;1.70;;;1.60;;
11651;SDS011;5882;48.818;9.114;2023-04-23T00:58:49;1.67;;;1.58;;
11651;SDS011;5882;48.818;9.114;2023-04-23T01:01:34;1.60;;;1.38;;
11651;SDS011;5882;48.818;9.114;2023-04-23T01:04:19;1.83;;;1.73;;
11651;SDS011;5882;48.818;9.114;2023-04-23T01:07:05;3.30;;;1.60;;
11651;SDS011;5882;48.818;9.114;2023-04-23T01:09:50;2.28;;;1.70;;
11651;SDS011;5882;48.818;9.114;2023-04-23T01:12:36;1.70;;;1.60;;
11651;SDS011;5882;48.818;9.114;2023-04-23T01:15:23;2.40;;;1.45;;
11651;SDS011;5882;48.818;9.114;2023-04-23T01:18:08;2.03;;;1.83;;
11651;SDS011;5882;48.818;9.114;2023-04-23T01:20:53;1.90;;;1.70;;
11651;SDS011;5882;48.818;9.114;2023-04-23T01:23:39;1.45;;;1.35;;
11651;SDS011;5882;48.818;9.114;2023-04-23T01:26:31;1.90;;;1.80;;
11651;SDS011;5882;48.818;9.114;2023-04-23T01:29:19;3.28;;;1.58;;
11651;SDS011;5882;48.818;9.114;2023-04-23T01:32:05;2.40;;;1.90;;
11651;SDS011;5882;48.818;9.114;2023-04-23T01:34:50;2.08;;;1.52;;
11651;SDS011;5882;48.818;9.114;2023-04-23T01:37:38;1.73;;;1.63;;
11651;SDS011;5882;48.818;9.114;2023-04-23T01:40:24;1.90;;;1.80;;
11651;SDS011;5882;48.818;9.114;2023-04-23T01:43:09;1.60;;;1.50;;
11651;SDS011;5882;48.818;9.114;2023-04-23T01:45:54;1.58;;;1.48;;
11651;SDS011;5882;48.818;9.114;2023-04-23T01:48:39;1.33;;;1.23;;
11651;SDS011;5882;48.818;9.114;2023-04-23T01:51:25;1.60;;;1.50;;
11651;SDS011;5882;48.818;9.114;2023-04-23T01:54:10;2.40;;;1.45;;
11651;SDS011;5882;48.818;9.114;2023-04-23T01:56:57;3.88;;;1.40;;
11651;SDS011;5882;48.818;9.114;2023-04-23T01:59:43;1.35;;;1.25;;
11651;SDS011;5882;48.818;9.114;2023-04-23T02:02:28;2.78;;;1.75;;
11651;SDS011;5882;48.818;9.114;2023-04-23T02:05:14;2.00;;;1.50;;
11651;SDS011;5882;48.818;9.114;2023-04-23T02:08:01;1.33;;;1.23;;
11651;SDS011;5882;48.818;9.114;2023-04-23T02:10:46;1.75;;;1.50;;
11651;SDS011;5882;48.818;9.114;2023-04-23T02:13:33;1.38;;;1.27;;
11651;SDS011;5882;48.818;9.114;2023-04-23T02:16:18;2.03;;;1.83;;
11651;SDS011;5882;48.818;9.114;2023-04-23T02:19:03;1.42;;;1.33;;
11651;SDS011;5882;48.818;9.114;2023-04-23T02:21:48;2.92;;;1.58;;
11651;SDS011;5882;48.818;9.114;2023-04-23T02:24:33;1.50;;;1.40;;
11651;SDS011;5882;48.818;9.114;2023-04-23T02:27:19;2.22;;;1.60;;
11651;SDS011;5882;48.818;9.114;2023-04-23T02:30:06;1.70;;;1.60;;
11651;SDS011;5882;48.818;9.114;2023-04-23T02:32:52;1.80;;;1.35;;
11651;SDS011;5882;48.818;9.114;2023-04-23T02:35:37;1.40;;;1.30;;
11651;SDS011;5882;48.818;9.114;2023-04-23T02:38:22;1.50;;;1.40;;
11651;SDS011;5882;48.818;9.114;2023-04-23T02:41:07;1.48;;;1.38;;
11651;SDS011;5882;48.818;9.114;2023-04-23T02:43:52;1.95;;;1.55;;
11651;SDS011;5882;48.818;9.114;2023-04-23T02:46:39;1.70;;;1.42;;
11651;SDS011;5882;48.818;9.114;2023-04-23T02:49:24;1.45;;;1.35;;
11651;SDS011;5882;48.818;9.114;2023-04-23T02:52:09;2.45;;;1.33;;
11651;SDS011;5882;48.818;9.114;2023-04-23T02:54:54;1.77;;;1.67;;
11651;SDS011;5882;48.818;9.114;2023-04-23T02:57:39;1.50;;;1.30;;
11651;SDS011;5882;48.818;9.114;2023-04-23T03:00:25;1.70;;;1.60;;
11651;SDS011;5882;48.818;9.114;2023-04-23T03:03:11;1.50;;;1.40;;
11651;SDS011;5882;48.818;9.114;2023-04-23T03:05:56;2.30;;;1.75;;
11651;SDS011;5882;48.818;9.114;2023-04-23T03:08:42;1.40;;;1.30;;
11651;SDS011;5882;48.818;9.114;2023-04-23T03:11:27;1.80;;;1.70;;
11651;SDS011;5882;48.818;9.114;2023-04-23T03:14:12;1.33;;;1.23;;
11651;SDS011;5882;48.818;9.114;2023-04-23T03:17:00;1.63;;;1.52;;
11651;SDS011;5882;48.818;9.114;2023-04-23T03:19:47;1.20;;;1.20;;
11651;SDS011;5882;48.818;9.114;2023-04-23T03:22:32;1.58;;;1.40;;
11651;SDS011;5882;48.818;9.114;2023-04-23T03:25:17;1.38;;;1.27;;
11651;SDS011;5882;48.818;9.114;2023-04-23T03:28:03;1.38;;;1.20;;
11651;SDS011;5882;48.818;9.114;2023-04-23T03:30:48;1.52;;;1.17;;
11651;SDS011;5882;48.818;9.114;2023-04-23T03:33:33;1.35;;;1.25;;
11651;SDS011;5882;48.818;9.114;2023-04-23T03:36:20;1.38;;;1.27;;
11651;SDS011;5882;48.818;9.114;2023-04-23T03:39:05;1.38;;;1.20;;
11651;SDS011;5882;48.818;9.114;2023-04-23T03:41:50;1.42;;;1.23;;
11651;SDS011;5882;48.818;9.114;2023-04-23T03:44:36;2.05;;;1.30;;
11651;SDS011;5882;48.818;9.114;2023-04-23T03:47:21;1.30;;;1.20;;
11651;SDS011;5882;48.818;9.114;2023-04-23T03:50:07;1.10;;;1.10;;
11651;SDS011;5882;48.818;9.114;2023-04-23T03:52:54;1.08;;;1.08;;
11651;SDS011;5882;48.818;9.114;2023-04-23T03:55:39;0.93;;;0.93;;
11651;SDS011;5882;48.818;9.114;2023-04-23T03:58:24;1.13;;;1.13;;
11651;SDS011;5882;48.818;9.114;2023-04-23T04:01:09;1.30;;;1.20;;
11651;SDS011;5882;48.818;9.114;2023-04-23T04:03:54;1.98;;;1.20;;
11651;SDS011;5882;48.818;9.114;2023-04-23T04:06:39;1.67;;;1.58;;
11651;SDS011;5882;48.818;9.114;2023-04-23T04:09:26;1.70;;;1.60;;
11651;SDS011;5882;48.818;9.114;2023-04-23T04:12:11;1.10;;;1.10;;
11651;SDS011;5882;48.818;9.114;2023-04-23T04:14:56;2.00;;;1.58;;
11651;SDS011;5882;48.818;9.114;2023-04-23T04:17:42;74.10;;;9.27;;
11651;SDS011;5882;48.818;9.114;2023-04-23T04:20:28;1.10;;;1.10;;
11651;SDS011;5882;48.818;9.114;2023-04-23T04:23:13;44.42;;;3.78;;
11651;SDS011;5882;48.818;9.114;2023-04-23T04:26:00;6.93;;;4.93;;
11651;SDS011;5882;48.818;9.114;2023-04-23T04:28:45;15.90;;;15.15;;
11651;SDS011;5882;48.818;9.114;2023-04-23T04:31:30;1.00;;;1.00;;
11651;SDS011;5882;48.818;9.114;2023-04-23T04:34:15;1.17;;;1.17;;
11651;SDS011;5882;48.818;9.114;2023-04-23T04:37:00;1.20;;;1.10;;
11651;SDS011;5882;48.818;9.114;2023-04-23T04:39:45;1.30;;;1.20;;
11651;SDS011;5882;48.818;9.114;2023-04-23T04:42:32;0.93;;;0.93;;
11651;SDS011;5882;48.818;9.114;2023-04-23T04:45:17;1.30;;;1.23;;
11651;SDS011;5882;48.818;9.114;2023-04-23T04:48:13;0.90;;;0.90;;
11651;SDS011;5882;48.818;9.114;2023-04-23T04:50:58;0.98;;;0.98;;
11651;SDS011;5882;48.818;9.114;2023-04-23T04:53:43;1.23;;;1.13;;
11651;SDS011;5882;48.818;9.114;2023-04-23T04:56:28;1527.53;;;775.60;;
11651;SDS011;5882;48.818;9.114;2023-04-23T04:59:15;67.20;;;61.85;;
11651;SDS011;5882;48.818;9.114;2023-04-23T05:02:00;81.65;;;33.97;;
11651;SDS011;5882;48.818;9.114;2023-04-23T05:04:45;426.33;;;117.25;;
11651;SDS011;5882;48.818;9.114;2023-04-23T05:07:31;3.92;;;3.65;;
11651;SDS011;5882;48.818;9.114;2023-04-23T05:10:16;19.02;;;18.20;;
11651;SDS011;5882;48.818;9.114;2023-04-23T05:13:01;1.08;;;0.98;;
11651;SDS011;5882;48.818;9.114;2023-04-23T05:15:48;1.45;;;1.10;;
11651;SDS011;5882;48.818;9.114;2023-04-23T05:18:33;1.10;;;1.00;;
11651;SDS011;5882;48.818;9.114;2023-04-23T05:21:18;42.33;;;3.30;;
11651;SDS011;5882;48.818;9.114;2023-04-23T05:24:03;1.05;;;1.02;;
11651;SDS011;5882;48.818;9.114;2023-04-23T05:26:49;1.35;;;1.25;;
11651;SDS011;5882;48.818;9.114;2023-04-23T05:29:34;1.20;;;1.10;;
11651;SDS011;5882;48.818;9.114;2023-04-23T05:32:21;1.50;;;1.40;;
11651;SDS011;5882;48.818;9.114;2023-04-23T05:35:06;1.10;;;1.00;;
11651;SDS011;5882;48.818;9.114;2023-04-23T05:37:51;1.10;;;1.02;;
11651;SDS011;5882;48.818;9.114;2023-04-23T05:40:39;1.10;;;1.10;;
11651;SDS011;5882;48.818;9.114;2023-04-23T05:43:25;1.40;;;1.30;;
11651;SDS011;5882;48.818;9.114;2023-04-23T05:46:10;0.98;;;0.98;;
11651;SDS011;5882;48.818;9.114;2023-04-23T05:48:56;0.98;;;0.98;;
11651;SDS011;5882;48.818;9.114;2023-04-23T05:51:41;1.25;;;1.08;;
11651;SDS011;5882;48.818;9.114;2023-04-23T05:54:26;1.25;;;1.15;;
11651;SDS011;5882;48.818;9.114;2023-04-23T05:57:12;1.23;;;1.13;;
11651;SDS011;5882;48.818;9.114;2023-04-23T05:59:57;1.30;;;1.20;;
11651;SDS011;5882;48.818;9.114;2023-04-23T06:02:42;1.20;;;1.10;;
11651;SDS011;5882;48.818;9.114;2023-04-23T06:05:28;0.88;;;0.88;;
11651;SDS011;5882;48.818;9.114;2023-04-23T06:08:13;1.40;;;1.30;;
11651;SDS011;5882;48.818;9.114;2023-04-23T06:10:58;2.60;;;1.90;;
11651;SDS011;5882;48.818;9.114;2023-04-23T06:13:44;2.38;;;1.73;;
11651;SDS011;5882;48.818;9.114;2023-04-23T06:16:29;1.52;;;1.40;;
11651;SDS011;5882;48.818;9.114;2023-04-23T06:19:15;1.40;;;1.30;;
11651;SDS011;5882;48.818;9.114;2023-04-23T06:22:02;1.00;;;1.00;;
11651;SDS011;5882;48.818;9.114;2023-04-23T06:24:47;0.95;;;0.95;;
11651;SDS011;5882;48.818;9.114;2023-04-23T06:27:32;0.90;;;0.90;;
11651;SDS011;5882;48.818;9.114;2023-04-23T06:30:17;1.15;;;1.02;;
11651;SDS011;5882;48.818;9.114;2023-04-23T06:33:05;1.10;;;1.10;;
11651;SDS011;5882;48.818;9.114;2023-04-23T06:35:50;1.02;;;1.02;;
11651;SDS011;5882;48.818;9.114;2023-04-23T06:38:37;1.10;;;1.00;;
11651;SDS011;5882;48.818;9.114;2023-04-23T06:41:22;0.90;;;0.90;;
11651;SDS011;5882;48.818;9.114;2023-04-23T06:44:10;1.10;;;1.10;;
11651;SDS011;5882;48.818;9.114;2023-04-23T06:46:55;1.73;;;1.20;;
11651;SDS011;5882;48.818;9.114;2023-04-23T06:49:40;1.52;;;1.25;;
11651;SDS011;5882;48.818;9.114;2023-04-23T06:52:25;0.90;;;0.90;;
11651;SDS011;5882;48.818;9.114;2023-04-23T06:55:12;1.00;;;1.00;;
11651;SDS011;5882;48.818;9.114;2023-04-23T06:57:59;1.38;;;1.35;;
11651;SDS011;5882;48.818;9.114;2023-04-23T07:00:44;0.90;;;0.90;;
11651;SDS011;5882;48.818;9.114;2023-04-23T07:03:30;0.90;;;0.90;;
11651;SDS011;5882;48.818;9.114;2023-04-23T07:06:15;1.00;;;1.00;;
11651;SDS011;5882;48.818;9.114;2023-04-23T07:09:00;1.00;;;1.00;;
11651;SDS011;5882;48.818;9.114;2023-04-23T07:11:46;1.10;;;1.10;;
11651;SDS011;5882;48.818;9.114;2023-04-23T07:14:32;1.17;;;1.00;;
11651;SDS011;5882;48.818;9.114;2023-04-23T07:17:17;1.10;;;1.10;;
11651;SDS011;5882;48.818;9.114;2023-04-23T07:20:02;0.85;;;0.85;;
11651;SDS011;5882;48.818;9.114;2023-04-23T07:22:49;0.90;;;0.90;;
11651;SDS011;5882;48.818;9.114;2023-04-23T07:25:34;1.10;;;1.10;;
11651;SDS011;5882;48.818;9.114;2023-04-23T07:28:21;0.80;;;0.80;;
11651;SDS011;5882;48.818;9.114;2023-04-23T07:31:06;1.40;;;0.80;;
11651;SDS011;5882;48.818;9.114;2023-04-23T07:33:51;1.00;;;1.00;;
11651;SDS011;5882;48.818;9.114;2023-04-23T07:36:36;0.90;;;0.90;;
11651;SDS011;5882;48.818;9.114;2023-04-23T07:39:22;0.85;;;0.85;;
11651;SDS011;5882;48.818;9.114;2023-04-23T07:42:07;1.02;;;1.00;;
11651;SDS011;5882;48.818;9.114;2023-04-23T07:44:53;0.85;;;0.85;;
11651;SDS011;5882;48.818;9.114;2023-04-23T07:47:38;0.90;;;0.90;;
11651;SDS011;5882;48.818;9.114;2023-04-23T07:50:23;0.90;;;0.90;;
11651;SDS011;5882;48.818;9.114;2023-04-23T07:53:11;0.90;;;0.90;;
11651;SDS011;5882;48.818;9.114;2023-04-23T07:55:56;0.90;;;0.90;;
11651;SDS011;5882;48.818;9.114;2023-04-23T07:58:41;0.85;;;0.85;;
11651;SDS011;5882;48.818;9.114;2023-04-23T08:01:29;0.90;;;0.90;;
11651;SDS011;5882;48.818;9.114;2023-04-23T08:04:16;1.00;;;1.00;;
11651;SDS011;5882;48.818;9.114;2023-04-23T08:07:01;2.30;;;1.33;;
11651;SDS011;5882;48.818;9.114;2023-04-23T08:09:46;1.00;;;1.00;;
11651;SDS011;5882;48.818;9.114;2023-04-23T08:12:31;1.30;;;1.20;;
11651;SDS011;5882;48.818;9.114;2023-04-23T08:15:18;1.52;;;1.40;;
11651;SDS011;5882;48.818;9.114;2023-04-23T08:18:05;1.05;;;1.02;;
11651;SDS011;5882;48.818;9.114;2023-04-23T08:20:50;1.10;;;1.10;;
11651;SDS011;5882;48.818;9.114;2023-04-23T08:23:35;1.48;;;1.10;;
11651;SDS011;5882;48.818;9.114;2023-04-23T08:26:20;1.67;;;1.02;;
11651;SDS011;5882;48.818;9.114;2023-04-23T08:29:06;0.90;;;0.90;;
11651;SDS011;5882;48.818;9.114;2023-04-23T08:31:51;2.05;;;1.02;;
11651;SDS011;5882;48.818;9.114;2023-04-23T08:34:38;1.00;;;1.00;;
11651;SDS011;5882;48.818;9.114;2023-04-23T08:37:23;1.40;;;1.30;;
11651;SDS011;5882;48.818;9.114;2023-04-23T08:40:08;0.90;;;0.90;;
11651;SDS011;5882;48.818;9.114;2023-04-23T08:42:56;1.15;;;1.15;;
11651;SDS011;5882;48.818;9.114;2023-04-23T08:45:41;1.23;;;1.15;;
11651;SDS011;5882;48.818;9.114;2023-04-23T08:48:30;1.20;;;1.10;;
11651;SDS011;5882;48.818;9.114;2023-04-23T08:51:20;1.30;;;1.20;;
11651;SDS011;5882;48.818;9.114;2023-04-23T08:54:05;0.93;;;0.93;;
11651;SDS011;5882;48.818;9.114;2023-04-23T08:56:53;1.05;;;1.02;;
11651;SDS011;5882;48.818;9.114;2023-04-23T08:59:40;1.10;;;1.00;;
11651;SDS011;5882;48.818;9.114;2023-04-23T09:02:25;1.60;;;1.50;;
11651;SDS011;5882;48.818;9.114;2023-04-23T09:05:11;27.83;;;5.93;;
11651;SDS011;5882;48.818;9.114;2023-04-23T09:07:58;3.55;;;3.42;;
11651;SDS011;5882;48.818;9.114;2023-04-23T09:10:46;1.38;;;1.27;;
11651;SDS011;5882;48.818;9.114;2023-04-23T09:13:33;1.23;;;1.08;;
11651;SDS011;5882;48.818;9.114;2023-04-23T09:16:19;1.23;;;1.13;;
11651;SDS011;5882;48.818;9.114;2023-04-23T09:19:04;1.10;;;1.00;;
11651;SDS011;5882;48.818;9.114;2023-04-23T09:21:49;1.02;;;1.00;;
11651;SDS011;5882;48.818;9.114;2023-04-23T09:24:36;49.78;;;11.45;;
11651;SDS011;5882;48.818;9.114;2023-04-23T09:27:22;1.23;;;1.13;;
11651;SDS011;5882;48.818;9.114;2023-04-23T09:30:09;2.20;;;1.10;;
11651;SDS011;5882;48.818;9.114;2023-04-23T09:32:54;0.93;;;0.93;;
11651;SDS011;5882;48.818;9.114;2023-04-23T09:35:39;1.05;;;1.05;;
11651;SDS011;5882;48.818;9.114;2023-04-23T09:38:25;1.13;;;1.10;;
11651;SDS011;5882;48.818;9.114;2023-04-23T09:41:21;1.35;;;1.25;;
11651;SDS011;5882;48.818;9.114;2023-04-23T09:44:16;1.33;;;1.23;;
11651;SDS011;5882;48.818;9.114;2023-04-23T09:47:09;1.20;;;1.10;;
11651;SDS011;5882;48.818;9.114;2023-04-23T09:49:57;1.00;;;1.00;;
11651;SDS011;5882;48.818;9.114;2023-04-23T09:52:43;1.30;;;1.20;;
11651;SDS011;5882;48.818;9.114;2023-04-23T09:55:35;1.30;;;1.13;;
11651;SDS011;5882;48.818;9.114;2023-04-23T09:58:22;1.40;;;1.30;;
11651;SDS011;5882;48.818;9.114;2023-04-23T10:01:09;1.50;;;1.40;;
11651;SDS011;5882;48.818;9.114;2023-04-23T10:03:55;1.30;;;1.20;;
11651;SDS011;5882;48.818;9.114;2023-04-23T10:06:41;20.13;;;19.13;;
11651;SDS011;5882;48.818;9.114;2023-04-23T10:09:26;61.70;;;26.08;;
11651;SDS011;5882;48.818;9.114;2023-04-23T10:12:12;182.75;;;168.65;;
11651;SDS011;5882;48.818;9.114;2023-04-23T10:15:01;103.47;;;48.05;;
11651;SDS011;5882;48.818;9.114;2023-04-23T10:17:47;0.98;;;0.95;;
11651;SDS011;5882;48.818;9.114;2023-04-23T10:20:33;118.97;;;45.80;;
11651;SDS011;5882;48.818;9.114;2023-04-23T10:23:20;103.40;;;34.42;;
11651;SDS011;5882;48.818;9.114;2023-04-23T10:26:06;1.17;;;1.17;;
11651;SDS011;5882;48.818;9.114;2023-04-23T10:28:53;31.35;;;29.08;;
11651;SDS011;5882;48.818;9.114;2023-04-23T10:31:39;1.00;;;1.00;;
11651;SDS011;5882;48.818;9.114;2023-04-23T10:34:26;1.35;;;1.02;;
11651;SDS011;5882;48.818;9.114;2023-04-23T10:37:11;1.00;;;1.00;;
11651;SDS011;5882;48.818;9.114;2023-04-23T10:40:00;18.23;;;8.88;;
11651;SDS011;5882;48.818;9.114;2023-04-23T10:42:48;1.38;;;1.00;;
11651;SDS011;5882;48.818;9.114;2023-04-23T10:45:34;241.02;;;84.75;;
11651;SDS011;5882;48.818;9.114;2023-04-23T10:48:21;271.35;;;155.55;;
11651;SDS011;5882;48.818;9.114;2023-04-23T10:51:05;146.48;;;37.97;;
11651;SDS011;5882;48.818;9.114;2023-04-23T10:53:51;185.98;;;62.60;;
11651;SDS011;5882;48.818;9.114;2023-04-23T10:56:36;188.15;;;84.65;;
11651;SDS011;5882;48.818;9.114;2023-04-23T10:59:21;445.65;;;121.88;;
11651;SDS011;5882;48.818;9.114;2023-04-23T11:02:08;1999.90;;;999.90;;
11651;SDS011;5882;48.818;9.114;2023-04-23T11:04:56;1999.90;;;999.90;;
11651;SDS011;5882;48.818;9.114;2023-04-23T11:07:41;1999.90;;;999.90;;
11651;SDS011;5882;48.818;9.114;2023-04-23T11:10:50;1999.90;;;999.90;;
11651;SDS011;5882;48.818;9.114;2023-04-23T11:13:35;1999.90;;;999.90;;
11651;SDS011;5882;48.818;9.114;2023-04-23T11:16:21;1.10;;;1.10;;
11651;SDS011;5882;48.818;9.114;2023-04-23T11:19:07;0.80;;;0.80;;
11651;SDS011;5882;48.818;9.114;2023-04-23T11:21:56;0.80;;;0.80;;
11651;SDS011;5882;48.818;9.114;2023-04-23T11:24:42;0.90;;;0.90;;
11651;SDS011;5882;48.818;9.114;2023-04-23T11:27:29;0.70;;;0.70;;
11651;SDS011;5882;48.818;9.114;2023-04-23T11:30:15;0.93;;;0.93;;
11651;SDS011;5882;48.818;9.114;2023-04-23T11:33:01;1.05;;;0.95;;
11651;SDS011;5882;48.818;9.114;2023-04-23T11:35:46;0.70;;;0.70;;
11651;SDS011;5882;48.818;9.114;2023-04-23T11:38:33;0.88;;;0.88;;
11651;SDS011;5882;48.818;9.114;2023-04-23T11:41:21;2.75;;;2.65;;
11651;SDS011;5882;48.818;9.114;2023-04-23T11:44:06;0.90;;;0.90;;
11651;SDS011;5882;48.818;9.114;2023-04-23T11:46:52;0.75;;;0.75;;
11651;SDS011;5882;48.818;9.114;2023-04-23T11:49:37;0.90;;;0.90;;
11651;SDS011;5882;48.818;9.114;2023-04-23T11:52:22;0.88;;;0.88;;
11651;SDS011;5882;48.818;9.114;2023-04-23T11:55:09;0.80;;;0.80;;
11651;SDS011;5882;48.818;9.114;2023-04-23T11:57:56;0.75;;;0.75;;
11651;SDS011;5882;48.818;9.114;2023-04-23T12:00:41;0.77;;;0.77;;
11651;SDS011;5882;48.818;9.114;2023-04-23T12:03:26;0.80;;;0.80;;
11651;SDS011;5882;48.818;9.114;2023-04-23T12:06:13;0.70;;;0.70;;
11651;SDS011;5882;48.818;9.114;2023-04-23T12:08:59;0.90;;;0.90;;
11651;SDS011;5882;48.818;9.114;2023-04-23T12:11:46;423.10;;;114.70;;
11651;SDS011;5882;48.818;9.114;2023-04-23T12:14:33;4.60;;;4.25;;
11651;SDS011;5882;48.818;9.114;2023-04-23T12:17:18;182.40;;;47.60;;
11651;SDS011;5882;48.818;9.114;2023-04-23T12:20:03;103.47;;;31.67;;
11651;SDS011;5882;48.818;9.114;2023-04-23T12:22:49;1.33;;;0.90;;
11651;SDS011;5882;48.818;9.114;2023-04-23T12:25:35;0.80;;;0.80;;
11651;SDS011;5882;48.818;9.114;2023-04-23T12:28:22;176.05;;;47.85;;
11651;SDS011;5882;48.818;9.114;2023-04-23T12:31:08;0.90;;;0.90;;
11651;SDS011;5882;48.818;9.114;2023-04-23T12:33:59;134.65;;;59.53;;
11651;SDS011;5882;48.818;9.114;2023-04-23T12:36:46;52.13;;;22.95;;
11651;SDS011;5882;48.818;9.114;2023-04-23T12:39:32;12.68;;;11.40;;
11651;SDS011;5882;48.818;9.114;2023-04-23T12:42:18;15.82;;;14.98;;
11651;SDS011;5882;48.818;9.114;2023-04-23T12:45:07;1.10;;;0.90;;
11651;SDS011;5882;48.818;9.114;2023-04-23T12:47:52;0.90;;;0.90;;
11651;SDS011;5882;48.818;9.114;2023-04-23T12:50:37;152.70;;;143.32;;
11651;SDS011;5882;48.818;9.114;2023-04-23T12:53:23;1.00;;;1.00;;
11651;SDS011;5882;48.818;9.114;2023-04-23T12:56:08;1.00;;;0.90;;
11651;SDS011;5882;48.818;9.114;2023-04-23T12:58:53;0.90;;;0.90;;
11651;SDS011;5882;48.818;9.114;2023-04-23T13:01:39;0.80;;;0.80;;
11651;SDS011;5882;48.818;9.114;2023-04-23T13:04:24;1.52;;;1.15;;
11651;SDS011;5882;48.818;9.114;2023-04-23T13:07:10;3.50;;;3.38;;
11651;SDS011;5882;48.818;9.114;2023-04-23T13:09:55;0.90;;;0.90;;
11651;SDS011;5882;48.818;9.114;2023-04-23T13:12:42;1.02;;;1.00;;
11651;SDS011;5882;48.818;9.114;2023-04-23T13:15:27;1.85;;;0.95;;
11651;SDS011;5882;48.818;9.114;2023-04-23T13:18:13;1.00;;;1.00;;
11651;SDS011;5882;48.818;9.114;2023-04-23T13:20:58;0.90;;;0.90;;
11651;SDS011;5882;48.818;9.114;2023-04-23T13:23:43;0.80;;;0.80;;
11651;SDS011;5882;48.818;9.114;2023-04-23T13:26:29;0.93;;;0.90;;
11651;SDS011;5882;48.818;9.114;2023-04-23T13:29:15;0.93;;;0.93;;
11651;SDS011;5882;48.818;9.114;2023-04-23T13:32:00;0.80;;;0.80;;
11651;SDS011;5882;48.818;9.114;2023-04-23T13:34:47;1.00;;;1.00;;
11651;SDS011;5882;48.818;9.114;2023-04-23T13:37:32;0.80;;;0.80;;
11651;SDS011;5882;48.818;9.114;2023-04-23T13:40:18;0.95;;;0.95;;
11651;SDS011;5882;48.818;9.114;2023-04-23T13:43:06;0.82;;;0.82;;
11651;SDS011;5882;48.818;9.114;2023-04-23T13:45:59;1.05;;;0.98;;
11651;SDS011;5882;48.818;9.114;2023-04-23T13:48:44;0.80;;;0.80;;
11651;SDS011;5882;48.818;9.114;2023-04-23T13:51:31;0.88;;;0.88;;
11651;SDS011;5882;48.818;9.114;2023-04-23T13:54:16;0.80;;;0.80;;
11651;SDS011;5882;48.818;9.114;2023-04-23T13:57:02;0.85;;;0.80;;
11651;SDS011;5882;48.818;9.114;2023-04-23T13:59:47;0.90;;;0.90;;
11651;SDS011;5882;48.818;9.114;2023-04-23T14:02:32;0.80;;;0.80;;
11651;SDS011;5882;48.818;9.114;2023-04-23T14:05:20;0.93;;;0.93;;
11651;SDS011;5882;48.818;9.114;2023-04-23T14:15:00;0.85;;;0.85;;
11651;SDS011;5882;48.818;9.114;2023-04-23T14:17:55;1.10;;;1.00;;
11651;SDS011;5882;48.818;9.114;2023-04-23T14:20:46;0.80;;;0.80;;
11651;SDS011;5882;48.818;9.114;2023-04-23T14:26:35;0.90;;;0.90;;
11651;SDS011;5882;48.818;9.114;2023-04-23T14:29:25;0.88;;;0.88;;
11651;SDS011;5882;48.818;9.114;2023-04-23T14:32:17;0.95;;;0.80;;
11651;SDS011;5882;48.818;9.114;2023-04-23T14:35:05;0.70;;;0.70;;
11651;SDS011;5882;48.818;9.114;2023-04-23T14:37:53;1.13;;;1.08;;
11651;SDS011;5882;48.818;9.114;2023-04-23T14:40:39;1.40;;;0.90;;
11651;SDS011;5882;48.818;9.114;2023-04-23T14:43:24;0.88;;;0.88;;
11651;SDS011;5882;48.818;9.114;2023-04-23T14:46:09;1.08;;;0.80;;
11651;SDS011;5882;48.818;9.114;2023-04-23T14:49:09;0.82;;;0.82;;
11651;SDS011;5882;48.818;9.114;2023-04-23T14:52:07;1.35;;;1.20;;
11651;SDS011;5882;48.818;9.114;2023-04-23T14:54:52;1.27;;;0.98;;
11651;SDS011;5882;48.818;9.114;2023-04-23T14:57:49;1.10;;;0.90;;
11651;SDS011;5882;48.818;9.114;2023-04-23T15:00:40;0.85;;;0.85;;
11651;SDS011;5882;48.818;9.114;2023-04-23T15:03:33;0.90;;;0.90;;
11651;SDS011;5882;48.818;9.114;2023-04-23T15:06:37;0.82;;;0.82;;
11651;SDS011;5882;48.818;9.114;2023-04-23T15:13:05;0.88;;;0.88;;
11651;SDS011;5882;48.818;9.114;2023-04-23T15:15:55;0.80;;;0.80;;
11651;SDS011;5882;48.818;9.114;2023-04-23T15:18:42;0.90;;;0.90;;
11651;SDS011;5882;48.818;9.114;2023-04-23T15:31:40;0.82;;;0.82;;
11651;SDS011;5882;48.818;9.114;2023-04-23T15:34:26;0.77;;;0.77;;
11651;SDS011;5882;48.818;9.114;2023-04-23T15:47:15;0.90;;;0.90;;
11651;SDS011;5882;48.818;9.114;2023-04-23T15:50:00;1.40;;;1.20;;
11651;SDS011;5882;48.818;9.114;2023-04-23T15:52:45;2.35;;;1.20;;
11651;SDS011;5882;48.818;9.114;2023-04-23T15:55:33;1.33;;;1.15;;
11651;SDS011;5882;48.818;9.114;2023-04-23T15:58:38;1.20;;;1.10;;
11651;SDS011;5882;48.818;9.114;2023-04-23T16:01:23;1.10;;;1.10;;
11651;SDS011;5882;48.818;9.114;2023-04-23T16:04:33;1.00;;;1.00;;
11651;SDS011;5882;48.818;9.114;2023-04-23T16:07:30;1.00;;;1.00;;
11651;SDS011;5882;48.818;9.114;2023-04-23T16:10:21;1.65;;;1.55;;
11651;SDS011;5882;48.818;9.114;2023-04-23T16:13:21;1.23;;;1.13;;
11651;SDS011;5882;48.818;9.114;2023-04-23T16:16:21;1.60;;;1.30;;
11651;SDS011;5882;48.818;9.114;2023-04-23T16:19:09;2.20;;;1.23;;
11651;SDS011;5882;48.818;9.114;2023-04-23T16:21:59;11.48;;;11.00;;
11651;SDS011;5882;48.818;9.114;2023-04-23T16:24:51;608.05;;;343.60;;
11651;SDS011;5882;48.818;9.114;2023-04-23T16:27:55;1046.13;;;984.88;;
11651;SDS011;5882;48.818;9.114;2023-04-23T16:31:01;58.65;;;36.15;;
11651;SDS011;5882;48.818;9.114;2023-04-23T16:34:06;1.30;;;1.20;;
11651;SDS011;5882;48.818;9.114;2023-04-23T16:36:51;1.30;;;1.23;;
11651;SDS011;5882;48.818;9.114;2023-04-23T16:39:38;124.65;;;21.98;;
11651;SDS011;5882;48.818;9.114;2023-04-23T16:42:23;1.30;;;1.20;;
11651;SDS011;5882;48.818;9.114;2023-04-23T16:45:09;1999.90;;;999.90;;
11651;SDS011;5882;48.818;9.114;2023-04-23T16:47:55;1999.90;;;999.90;;
11651;SDS011;5882;48.818;9.114;2023-04-23T16:50:40;1999.90;;;999.90;;
11651;SDS011;5882;48.818;9.114;2023-04-23T16:53:25;1999.90;;;999.90;;
11651;SDS011;5882;48.818;9.114;2023-04-23T16:56:12;1999.90;;;999.90;;
11651;SDS011;5882;48.818;9.114;2023-04-23T16:58:57;1999.90;;;999.90;;
11651;SDS011;5882;48.818;9.114;2023-04-23T17:01:42;4.70;;;4.25;;
11651;SDS011;5882;48.818;9.114;2023-04-23T17:04:27;1.20;;;1.20;;
11651;SDS011;5882;48.818;9.114;2023-04-23T17:07:12;460.33;;;42.15;;
11651;SDS011;5882;48.818;9.114;2023-04-23T17:09:57;1.33;;;1.23;;
11651;SDS011;5882;48.818;9.114;2023-04-23T17:12:44;456.92;;;40.10;;
11651;SDS011;5882;48.818;9.114;2023-04-23T17:15:29;504.40;;;36.47;;
11651;SDS011;5882;48.818;9.114;2023-04-23T17:18:14;46.10;;;6.70;;
11651;SDS011;5882;48.818;9.114;2023-04-23T17:21:00;45.15;;;6.93;;
11651;SDS011;5882;48.818;9.114;2023-04-23T17:23:45;2.22;;;1.20;;
11651;SDS011;5882;48.818;9.114;2023-04-23T17:26:31;1.33;;;1.23;;